sensor_id;sensor_type;location;lat;lon;timestamp;P1;durP1;ratioP1;P2;durP2;ratioP2
11791;SDS011;5953;52.372;9.918;2024-02-26T00:01:41;3.87;;;2.80;;
11791;SDS011;5953;52.372;9.918;2024-02-26T00:04:09;3.60;;;2.73;;
11791;SDS011;5953;52.372;9.918;2024-02-26T00:06:38;4.93;;;3.10;;
11791;SDS011;5953;52.372;9.918;2024-02-26T00:09:07;3.23;;;2.63;;
11791;SDS011;5953;52.372;9.918;2024-02-26T00:11:36;3.40;;;2.70;;
11791;SDS011;5953;52.372;9.918;2024-02-26T00:14:05;3.87;;;3.03;;
11791;SDS011;5953;52.372;9.918;2024-02-26T00:16:33;3.97;;;2.67;;
11791;SDS011;5953;52.372;9.918;2024-02-26T00:19:01;4.40;;;3.33;;
11791;SDS011;5953;52.372;9.918;2024-02-26T00:21:30;3.80;;;3.17;;
11791;SDS011;5953;52.372;9.918;2024-02-26T00:23:57;4.40;;;3.23;;
11791;SDS011;5953;52.372;9.918;2024-02-26T00:26:26;5.03;;;3.57;;
11791;SDS011;5953;52.372;9.918;2024-02-26T00:28:54;5.87;;;3.63;;
11791;SDS011;5953;52.372;9.918;2024-02-26T00:31:23;4.67;;;3.03;;
11791;SDS011;5953;52.372;9.918;2024-02-26T00:33:51;4.27;;;2.90;;
11791;SDS011;5953;52.372;9.918;2024-02-26T00:36:20;5.07;;;3.03;;
11791;SDS011;5953;52.372;9.918;2024-02-26T00:38:49;3.33;;;2.40;;
11791;SDS011;5953;52.372;9.918;2024-02-26T00:41:18;6.70;;;3.00;;
11791;SDS011;5953;52.372;9.918;2024-02-26T00:43:46;4.63;;;2.93;;
11791;SDS011;5953;52.372;9.918;2024-02-26T00:46:14;4.33;;;3.00;;
11791;SDS011;5953;52.372;9.918;2024-02-26T00:48:43;4.40;;;2.87;;
11791;SDS011;5953;52.372;9.918;2024-02-26T00:51:12;3.93;;;3.03;;
11791;SDS011;5953;52.372;9.918;2024-02-26T00:53:40;6.43;;;2.90;;
11791;SDS011;5953;52.372;9.918;2024-02-26T00:56:08;3.57;;;2.30;;
11791;SDS011;5953;52.372;9.918;2024-02-26T00:58:36;4.93;;;3.43;;
11791;SDS011;5953;52.372;9.918;2024-02-26T01:01:04;5.93;;;2.93;;
11791;SDS011;5953;52.372;9.918;2024-02-26T01:03:32;3.73;;;3.10;;
11791;SDS011;5953;52.372;9.918;2024-02-26T01:06:01;3.90;;;3.10;;
11791;SDS011;5953;52.372;9.918;2024-02-26T01:08:29;5.47;;;3.10;;
11791;SDS011;5953;52.372;9.918;2024-02-26T01:10:58;5.67;;;3.27;;
11791;SDS011;5953;52.372;9.918;2024-02-26T01:13:26;4.27;;;2.70;;
11791;SDS011;5953;52.372;9.918;2024-02-26T01:15:54;2.77;;;2.50;;
11791;SDS011;5953;52.372;9.918;2024-02-26T01:18:22;3.43;;;2.60;;
11791;SDS011;5953;52.372;9.918;2024-02-26T01:20:50;3.50;;;2.70;;
11791;SDS011;5953;52.372;9.918;2024-02-26T01:23:22;5.43;;;2.60;;
11791;SDS011;5953;52.372;9.918;2024-02-26T01:25:50;7.50;;;2.73;;
11791;SDS011;5953;52.372;9.918;2024-02-26T01:28:19;6.03;;;2.83;;
11791;SDS011;5953;52.372;9.918;2024-02-26T01:30:47;3.20;;;2.43;;
11791;SDS011;5953;52.372;9.918;2024-02-26T01:33:15;2.20;;;2.00;;
11791;SDS011;5953;52.372;9.918;2024-02-26T01:35:43;3.53;;;2.13;;
11791;SDS011;5953;52.372;9.918;2024-02-26T01:38:11;2.53;;;2.33;;
11791;SDS011;5953;52.372;9.918;2024-02-26T01:40:40;4.17;;;2.40;;
11791;SDS011;5953;52.372;9.918;2024-02-26T01:43:08;3.63;;;2.20;;
11791;SDS011;5953;52.372;9.918;2024-02-26T01:45:36;3.03;;;2.40;;
11791;SDS011;5953;52.372;9.918;2024-02-26T01:48:04;3.63;;;2.20;;
11791;SDS011;5953;52.372;9.918;2024-02-26T01:50:33;3.67;;;2.53;;
11791;SDS011;5953;52.372;9.918;2024-02-26T01:53:01;2.50;;;2.30;;
11791;SDS011;5953;52.372;9.918;2024-02-26T01:55:29;2.67;;;2.40;;
11791;SDS011;5953;52.372;9.918;2024-02-26T01:57:59;2.90;;;2.50;;
11791;SDS011;5953;52.372;9.918;2024-02-26T02:00:27;3.23;;;2.40;;
11791;SDS011;5953;52.372;9.918;2024-02-26T02:02:55;3.10;;;2.27;;
11791;SDS011;5953;52.372;9.918;2024-02-26T02:05:24;3.23;;;2.80;;
11791;SDS011;5953;52.372;9.918;2024-02-26T02:07:53;2.33;;;2.13;;
11791;SDS011;5953;52.372;9.918;2024-02-26T02:10:21;3.40;;;2.57;;
11791;SDS011;5953;52.372;9.918;2024-02-26T02:12:52;3.20;;;2.50;;
11791;SDS011;5953;52.372;9.918;2024-02-26T02:15:21;2.53;;;2.10;;
11791;SDS011;5953;52.372;9.918;2024-02-26T02:17:49;3.03;;;2.20;;
11791;SDS011;5953;52.372;9.918;2024-02-26T02:20:18;2.97;;;2.40;;
11791;SDS011;5953;52.372;9.918;2024-02-26T02:22:48;3.60;;;2.43;;
11791;SDS011;5953;52.372;9.918;2024-02-26T02:25:16;2.53;;;2.17;;
11791;SDS011;5953;52.372;9.918;2024-02-26T02:27:44;2.50;;;2.30;;
11791;SDS011;5953;52.372;9.918;2024-02-26T02:30:12;3.60;;;2.60;;
11791;SDS011;5953;52.372;9.918;2024-02-26T02:32:41;2.83;;;2.30;;
11791;SDS011;5953;52.372;9.918;2024-02-26T02:35:10;2.67;;;2.33;;
11791;SDS011;5953;52.372;9.918;2024-02-26T02:37:38;4.27;;;2.30;;
11791;SDS011;5953;52.372;9.918;2024-02-26T02:40:08;3.53;;;2.40;;
11791;SDS011;5953;52.372;9.918;2024-02-26T02:42:36;3.20;;;2.53;;
11791;SDS011;5953;52.372;9.918;2024-02-26T02:45:04;2.60;;;2.10;;
11791;SDS011;5953;52.372;9.918;2024-02-26T02:47:35;2.37;;;2.00;;
11791;SDS011;5953;52.372;9.918;2024-02-26T02:50:04;2.97;;;2.10;;
11791;SDS011;5953;52.372;9.918;2024-02-26T02:52:32;2.83;;;2.30;;
11791;SDS011;5953;52.372;9.918;2024-02-26T02:55:00;3.03;;;2.43;;
11791;SDS011;5953;52.372;9.918;2024-02-26T02:57:30;2.67;;;2.00;;
11791;SDS011;5953;52.372;9.918;2024-02-26T02:59:59;2.23;;;1.97;;
11791;SDS011;5953;52.372;9.918;2024-02-26T03:02:27;3.03;;;2.03;;
11791;SDS011;5953;52.372;9.918;2024-02-26T03:04:56;2.50;;;2.00;;
11791;SDS011;5953;52.372;9.918;2024-02-26T03:07:24;2.90;;;2.27;;
11791;SDS011;5953;52.372;9.918;2024-02-26T03:09:52;2.17;;;1.90;;
11791;SDS011;5953;52.372;9.918;2024-02-26T03:12:20;2.73;;;2.03;;
11791;SDS011;5953;52.372;9.918;2024-02-26T03:14:49;2.93;;;2.10;;
11791;SDS011;5953;52.372;9.918;2024-02-26T03:17:17;2.73;;;2.13;;
11791;SDS011;5953;52.372;9.918;2024-02-26T03:19:46;4.23;;;2.83;;
11791;SDS011;5953;52.372;9.918;2024-02-26T03:22:19;5.53;;;2.43;;
11791;SDS011;5953;52.372;9.918;2024-02-26T03:24:47;2.97;;;2.23;;
11791;SDS011;5953;52.372;9.918;2024-02-26T03:27:15;3.23;;;2.50;;
11791;SDS011;5953;52.372;9.918;2024-02-26T03:29:44;2.80;;;2.30;;
11791;SDS011;5953;52.372;9.918;2024-02-26T03:32:13;2.50;;;2.10;;
11791;SDS011;5953;52.372;9.918;2024-02-26T03:34:41;2.10;;;1.60;;
11791;SDS011;5953;52.372;9.918;2024-02-26T03:37:09;3.57;;;2.10;;
11791;SDS011;5953;52.372;9.918;2024-02-26T03:39:37;3.33;;;2.10;;
11791;SDS011;5953;52.372;9.918;2024-02-26T03:42:05;3.40;;;1.93;;
11791;SDS011;5953;52.372;9.918;2024-02-26T03:44:34;2.43;;;2.13;;
11791;SDS011;5953;52.372;9.918;2024-02-26T03:47:02;1.77;;;1.50;;
11791;SDS011;5953;52.372;9.918;2024-02-26T03:49:31;2.43;;;1.90;;
11791;SDS011;5953;52.372;9.918;2024-02-26T03:51:59;2.37;;;1.97;;
11791;SDS011;5953;52.372;9.918;2024-02-26T03:54:27;2.63;;;1.83;;
11791;SDS011;5953;52.372;9.918;2024-02-26T03:56:56;2.53;;;2.13;;
11791;SDS011;5953;52.372;9.918;2024-02-26T03:59:24;2.50;;;2.30;;
11791;SDS011;5953;52.372;9.918;2024-02-26T04:01:53;2.73;;;2.03;;
11791;SDS011;5953;52.372;9.918;2024-02-26T04:04:21;3.67;;;1.97;;
11791;SDS011;5953;52.372;9.918;2024-02-26T04:06:50;2.77;;;2.07;;
11791;SDS011;5953;52.372;9.918;2024-02-26T04:09:20;3.33;;;2.43;;
11791;SDS011;5953;52.372;9.918;2024-02-26T04:11:49;2.80;;;1.87;;
11791;SDS011;5953;52.372;9.918;2024-02-26T04:14:17;2.13;;;1.93;;
11791;SDS011;5953;52.372;9.918;2024-02-26T04:16:44;3.17;;;2.20;;
11791;SDS011;5953;52.372;9.918;2024-02-26T04:19:14;4.97;;;2.37;;
11791;SDS011;5953;52.372;9.918;2024-02-26T04:21:42;2.90;;;2.23;;
11791;SDS011;5953;52.372;9.918;2024-02-26T04:24:12;2.43;;;2.07;;
11791;SDS011;5953;52.372;9.918;2024-02-26T04:26:40;2.23;;;2.03;;
11791;SDS011;5953;52.372;9.918;2024-02-26T04:29:08;2.87;;;2.00;;
11791;SDS011;5953;52.372;9.918;2024-02-26T04:31:36;1.93;;;1.63;;
11791;SDS011;5953;52.372;9.918;2024-02-26T04:34:05;2.43;;;2.10;;
11791;SDS011;5953;52.372;9.918;2024-02-26T04:36:36;4.43;;;2.30;;
11791;SDS011;5953;52.372;9.918;2024-02-26T04:39:04;2.43;;;2.23;;
11791;SDS011;5953;52.372;9.918;2024-02-26T04:41:37;2.57;;;2.17;;
11791;SDS011;5953;52.372;9.918;2024-02-26T04:44:05;3.20;;;2.23;;
11791;SDS011;5953;52.372;9.918;2024-02-26T04:46:33;3.07;;;1.90;;
11791;SDS011;5953;52.372;9.918;2024-02-26T04:49:02;3.90;;;2.40;;
11791;SDS011;5953;52.372;9.918;2024-02-26T04:51:30;2.87;;;2.40;;
11791;SDS011;5953;52.372;9.918;2024-02-26T04:53:58;5.20;;;2.60;;
11791;SDS011;5953;52.372;9.918;2024-02-26T04:56:27;3.67;;;2.70;;
11791;SDS011;5953;52.372;9.918;2024-02-26T04:58:56;3.53;;;2.13;;
11791;SDS011;5953;52.372;9.918;2024-02-26T05:01:24;3.00;;;2.07;;
11791;SDS011;5953;52.372;9.918;2024-02-26T05:03:52;2.93;;;2.13;;
11791;SDS011;5953;52.372;9.918;2024-02-26T05:06:21;3.00;;;2.20;;
11791;SDS011;5953;52.372;9.918;2024-02-26T05:08:49;2.93;;;2.20;;
11791;SDS011;5953;52.372;9.918;2024-02-26T05:11:17;3.97;;;2.23;;
11791;SDS011;5953;52.372;9.918;2024-02-26T05:13:45;3.03;;;2.00;;
11791;SDS011;5953;52.372;9.918;2024-02-26T05:16:16;3.43;;;2.60;;
11791;SDS011;5953;52.372;9.918;2024-02-26T05:18:47;2.97;;;2.20;;
11791;SDS011;5953;52.372;9.918;2024-02-26T05:21:15;3.90;;;2.43;;
11791;SDS011;5953;52.372;9.918;2024-02-26T05:23:43;4.60;;;2.53;;
11791;SDS011;5953;52.372;9.918;2024-02-26T05:26:18;2.70;;;2.37;;
11791;SDS011;5953;52.372;9.918;2024-02-26T05:28:47;4.13;;;3.03;;
11791;SDS011;5953;52.372;9.918;2024-02-26T05:31:18;3.63;;;2.53;;
11791;SDS011;5953;52.372;9.918;2024-02-26T05:33:46;2.83;;;2.53;;
11791;SDS011;5953;52.372;9.918;2024-02-26T05:36:18;3.27;;;2.57;;
11791;SDS011;5953;52.372;9.918;2024-02-26T05:38:48;4.63;;;2.87;;
11791;SDS011;5953;52.372;9.918;2024-02-26T05:41:17;3.67;;;2.60;;
11791;SDS011;5953;52.372;9.918;2024-02-26T05:43:49;2.30;;;2.10;;
11791;SDS011;5953;52.372;9.918;2024-02-26T05:46:18;4.27;;;2.37;;
11791;SDS011;5953;52.372;9.918;2024-02-26T05:48:47;2.37;;;2.17;;
11791;SDS011;5953;52.372;9.918;2024-02-26T05:51:17;3.03;;;2.20;;
11791;SDS011;5953;52.372;9.918;2024-02-26T05:53:46;3.73;;;2.67;;
11791;SDS011;5953;52.372;9.918;2024-02-26T05:56:21;3.20;;;2.67;;
11791;SDS011;5953;52.372;9.918;2024-02-26T05:58:49;2.87;;;2.20;;
11791;SDS011;5953;52.372;9.918;2024-02-26T06:01:20;3.33;;;2.60;;
11791;SDS011;5953;52.372;9.918;2024-02-26T06:03:48;4.70;;;2.47;;
11791;SDS011;5953;52.372;9.918;2024-02-26T06:06:16;3.70;;;2.70;;
11791;SDS011;5953;52.372;9.918;2024-02-26T06:08:44;5.07;;;2.73;;
11791;SDS011;5953;52.372;9.918;2024-02-26T06:11:17;4.17;;;2.50;;
11791;SDS011;5953;52.372;9.918;2024-02-26T06:13:46;3.93;;;2.97;;
11791;SDS011;5953;52.372;9.918;2024-02-26T06:16:13;3.67;;;2.90;;
11791;SDS011;5953;52.372;9.918;2024-02-26T06:18:42;3.67;;;2.80;;
11791;SDS011;5953;52.372;9.918;2024-02-26T06:21:10;4.53;;;2.80;;
11791;SDS011;5953;52.372;9.918;2024-02-26T06:23:38;3.80;;;3.03;;
11791;SDS011;5953;52.372;9.918;2024-02-26T06:26:07;3.73;;;3.27;;
11791;SDS011;5953;52.372;9.918;2024-02-26T06:28:34;4.07;;;3.00;;
11791;SDS011;5953;52.372;9.918;2024-02-26T06:31:03;3.80;;;3.17;;
11791;SDS011;5953;52.372;9.918;2024-02-26T06:33:32;4.77;;;3.40;;
11791;SDS011;5953;52.372;9.918;2024-02-26T06:36:01;4.17;;;3.77;;
11791;SDS011;5953;52.372;9.918;2024-02-26T06:38:29;5.07;;;3.93;;
11791;SDS011;5953;52.372;9.918;2024-02-26T06:40:56;4.50;;;3.87;;
11791;SDS011;5953;52.372;9.918;2024-02-26T06:43:24;5.53;;;3.97;;
11791;SDS011;5953;52.372;9.918;2024-02-26T06:45:52;7.13;;;3.77;;
11791;SDS011;5953;52.372;9.918;2024-02-26T06:48:20;4.00;;;3.50;;
11791;SDS011;5953;52.372;9.918;2024-02-26T06:50:48;5.83;;;4.23;;
11791;SDS011;5953;52.372;9.918;2024-02-26T06:53:17;4.70;;;4.20;;
11791;SDS011;5953;52.372;9.918;2024-02-26T06:55:44;5.57;;;4.43;;
11791;SDS011;5953;52.372;9.918;2024-02-26T06:58:12;5.80;;;4.37;;
11791;SDS011;5953;52.372;9.918;2024-02-26T07:00:40;5.10;;;4.03;;
11791;SDS011;5953;52.372;9.918;2024-02-26T07:03:08;8.77;;;4.23;;
11791;SDS011;5953;52.372;9.918;2024-02-26T07:05:36;4.33;;;3.93;;
11791;SDS011;5953;52.372;9.918;2024-02-26T07:08:05;4.57;;;4.17;;
11791;SDS011;5953;52.372;9.918;2024-02-26T07:10:35;4.20;;;3.57;;
11791;SDS011;5953;52.372;9.918;2024-02-26T07:13:02;5.30;;;4.03;;
11791;SDS011;5953;52.372;9.918;2024-02-26T07:15:30;6.23;;;4.97;;
11791;SDS011;5953;52.372;9.918;2024-02-26T07:17:59;7.23;;;4.17;;
11791;SDS011;5953;52.372;9.918;2024-02-26T07:20:29;6.00;;;3.90;;
11791;SDS011;5953;52.372;9.918;2024-02-26T07:22:57;5.67;;;4.00;;
11791;SDS011;5953;52.372;9.918;2024-02-26T07:25:25;5.67;;;4.23;;
11791;SDS011;5953;52.372;9.918;2024-02-26T07:27:54;7.37;;;4.40;;
11791;SDS011;5953;52.372;9.918;2024-02-26T07:30:22;6.00;;;4.77;;
11791;SDS011;5953;52.372;9.918;2024-02-26T07:32:51;5.57;;;4.70;;
11791;SDS011;5953;52.372;9.918;2024-02-26T07:35:19;4.60;;;3.90;;
11791;SDS011;5953;52.372;9.918;2024-02-26T07:37:47;5.93;;;5.33;;
11791;SDS011;5953;52.372;9.918;2024-02-26T07:40:15;5.37;;;4.23;;
11791;SDS011;5953;52.372;9.918;2024-02-26T07:42:43;5.10;;;4.40;;
11791;SDS011;5953;52.372;9.918;2024-02-26T07:45:13;5.13;;;3.90;;
11791;SDS011;5953;52.372;9.918;2024-02-26T07:47:42;5.07;;;4.00;;
11791;SDS011;5953;52.372;9.918;2024-02-26T07:50:10;5.97;;;4.00;;
11791;SDS011;5953;52.372;9.918;2024-02-26T07:52:38;5.70;;;4.17;;
11791;SDS011;5953;52.372;9.918;2024-02-26T07:55:10;4.70;;;4.20;;
11791;SDS011;5953;52.372;9.918;2024-02-26T07:57:41;6.40;;;4.63;;
11791;SDS011;5953;52.372;9.918;2024-02-26T08:00:09;5.17;;;3.93;;
11791;SDS011;5953;52.372;9.918;2024-02-26T08:02:40;5.90;;;3.63;;
11791;SDS011;5953;52.372;9.918;2024-02-26T08:05:07;5.27;;;3.70;;
11791;SDS011;5953;52.372;9.918;2024-02-26T08:07:35;4.20;;;3.37;;
11791;SDS011;5953;52.372;9.918;2024-02-26T08:10:06;4.13;;;3.43;;
11791;SDS011;5953;52.372;9.918;2024-02-26T08:12:34;7.43;;;3.20;;
11791;SDS011;5953;52.372;9.918;2024-02-26T08:15:03;6.37;;;3.03;;
11791;SDS011;5953;52.372;9.918;2024-02-26T08:17:31;3.53;;;2.90;;
11791;SDS011;5953;52.372;9.918;2024-02-26T08:20:01;4.23;;;3.27;;
11791;SDS011;5953;52.372;9.918;2024-02-26T08:22:29;4.20;;;3.67;;
11791;SDS011;5953;52.372;9.918;2024-02-26T08:24:57;6.53;;;3.27;;
11791;SDS011;5953;52.372;9.918;2024-02-26T08:27:24;4.23;;;3.53;;
11791;SDS011;5953;52.372;9.918;2024-02-26T08:29:52;4.20;;;3.80;;
11791;SDS011;5953;52.372;9.918;2024-02-26T08:32:20;3.20;;;2.90;;
11791;SDS011;5953;52.372;9.918;2024-02-26T08:34:48;3.33;;;3.00;;
11791;SDS011;5953;52.372;9.918;2024-02-26T08:37:17;4.50;;;3.67;;
11791;SDS011;5953;52.372;9.918;2024-02-26T08:39:45;3.40;;;3.10;;
11791;SDS011;5953;52.372;9.918;2024-02-26T08:42:13;3.87;;;3.47;;
11791;SDS011;5953;52.372;9.918;2024-02-26T08:44:41;5.87;;;3.03;;
11791;SDS011;5953;52.372;9.918;2024-02-26T08:47:08;4.37;;;3.10;;
11791;SDS011;5953;52.372;9.918;2024-02-26T08:49:36;5.50;;;2.90;;
11791;SDS011;5953;52.372;9.918;2024-02-26T08:52:04;4.33;;;3.20;;
11791;SDS011;5953;52.372;9.918;2024-02-26T08:54:34;3.53;;;3.20;;
11791;SDS011;5953;52.372;9.918;2024-02-26T08:57:02;5.13;;;2.53;;
11791;SDS011;5953;52.372;9.918;2024-02-26T08:59:32;3.93;;;2.73;;
11791;SDS011;5953;52.372;9.918;2024-02-26T09:01:59;4.37;;;2.47;;
11791;SDS011;5953;52.372;9.918;2024-02-26T09:04:27;3.53;;;2.50;;
11791;SDS011;5953;52.372;9.918;2024-02-26T09:06:55;3.50;;;2.80;;
11791;SDS011;5953;52.372;9.918;2024-02-26T09:09:23;2.50;;;2.23;;
11791;SDS011;5953;52.372;9.918;2024-02-26T09:11:54;3.37;;;2.67;;
11791;SDS011;5953;52.372;9.918;2024-02-26T09:14:22;3.00;;;2.70;;
11791;SDS011;5953;52.372;9.918;2024-02-26T09:16:53;3.97;;;3.13;;
11791;SDS011;5953;52.372;9.918;2024-02-26T09:19:21;2.90;;;2.40;;
11791;SDS011;5953;52.372;9.918;2024-02-26T09:21:49;3.80;;;2.70;;
11791;SDS011;5953;52.372;9.918;2024-02-26T09:24:17;3.40;;;2.67;;
11791;SDS011;5953;52.372;9.918;2024-02-26T09:26:44;3.53;;;2.20;;
11791;SDS011;5953;52.372;9.918;2024-02-26T09:29:14;4.27;;;2.70;;
11791;SDS011;5953;52.372;9.918;2024-02-26T09:31:41;3.57;;;2.20;;
11791;SDS011;5953;52.372;9.918;2024-02-26T09:34:13;2.57;;;2.07;;
11791;SDS011;5953;52.372;9.918;2024-02-26T09:36:41;4.80;;;2.40;;
11791;SDS011;5953;52.372;9.918;2024-02-26T09:39:09;5.37;;;2.50;;
11791;SDS011;5953;52.372;9.918;2024-02-26T09:41:38;5.07;;;2.53;;
11791;SDS011;5953;52.372;9.918;2024-02-26T09:44:06;9.10;;;2.77;;
11791;SDS011;5953;52.372;9.918;2024-02-26T09:46:36;6.57;;;2.40;;
11791;SDS011;5953;52.372;9.918;2024-02-26T09:49:04;4.87;;;2.50;;
11791;SDS011;5953;52.372;9.918;2024-02-26T09:51:34;4.20;;;2.10;;
11791;SDS011;5953;52.372;9.918;2024-02-26T09:54:02;3.83;;;2.30;;
11791;SDS011;5953;52.372;9.918;2024-02-26T09:56:34;3.63;;;2.03;;
11791;SDS011;5953;52.372;9.918;2024-02-26T09:59:13;2.87;;;2.10;;
11791;SDS011;5953;52.372;9.918;2024-02-26T10:01:45;7.63;;;2.13;;
11791;SDS011;5953;52.372;9.918;2024-02-26T10:04:15;2.20;;;1.90;;
11791;SDS011;5953;52.372;9.918;2024-02-26T10:06:43;3.53;;;2.40;;
11791;SDS011;5953;52.372;9.918;2024-02-26T10:09:13;2.40;;;1.97;;
11791;SDS011;5953;52.372;9.918;2024-02-26T10:11:42;1.40;;;1.17;;
11791;SDS011;5953;52.372;9.918;2024-02-26T10:14:11;4.90;;;2.53;;
11791;SDS011;5953;52.372;9.918;2024-02-26T10:16:38;2.23;;;1.77;;
11791;SDS011;5953;52.372;9.918;2024-02-26T10:19:10;4.03;;;2.30;;
11791;SDS011;5953;52.372;9.918;2024-02-26T10:21:55;4.40;;;1.97;;
11791;SDS011;5953;52.372;9.918;2024-02-26T10:24:23;3.37;;;2.30;;
11791;SDS011;5953;52.372;9.918;2024-02-26T10:26:51;2.73;;;2.10;;
11791;SDS011;5953;52.372;9.918;2024-02-26T10:29:20;3.53;;;1.80;;
11791;SDS011;5953;52.372;9.918;2024-02-26T10:31:48;3.07;;;1.67;;
11791;SDS011;5953;52.372;9.918;2024-02-26T10:34:19;2.77;;;2.13;;
11791;SDS011;5953;52.372;9.918;2024-02-26T10:36:48;2.17;;;1.90;;
11791;SDS011;5953;52.372;9.918;2024-02-26T10:39:20;4.23;;;2.17;;
11791;SDS011;5953;52.372;9.918;2024-02-26T10:41:48;3.33;;;1.97;;
11791;SDS011;5953;52.372;9.918;2024-02-26T10:44:17;4.00;;;2.07;;
11791;SDS011;5953;52.372;9.918;2024-02-26T10:46:46;3.57;;;2.13;;
11791;SDS011;5953;52.372;9.918;2024-02-26T10:49:15;2.93;;;2.40;;
11791;SDS011;5953;52.372;9.918;2024-02-26T10:51:54;3.20;;;2.10;;
11791;SDS011;5953;52.372;9.918;2024-02-26T10:54:24;3.63;;;2.03;;
11791;SDS011;5953;52.372;9.918;2024-02-26T10:56:55;3.37;;;2.23;;
11791;SDS011;5953;52.372;9.918;2024-02-26T10:59:24;4.23;;;2.20;;
11791;SDS011;5953;52.372;9.918;2024-02-26T11:01:52;1.40;;;1.30;;
11791;SDS011;5953;52.372;9.918;2024-02-26T11:04:22;2.00;;;1.80;;
11791;SDS011;5953;52.372;9.918;2024-02-26T11:06:53;3.07;;;1.97;;
11791;SDS011;5953;52.372;9.918;2024-02-26T11:09:24;2.80;;;2.20;;
11791;SDS011;5953;52.372;9.918;2024-02-26T11:11:53;3.47;;;2.20;;
11791;SDS011;5953;52.372;9.918;2024-02-26T11:14:22;3.53;;;2.00;;
11791;SDS011;5953;52.372;9.918;2024-02-26T11:16:52;4.40;;;2.53;;
11791;SDS011;5953;52.372;9.918;2024-02-26T11:19:21;4.67;;;2.43;;
11791;SDS011;5953;52.372;9.918;2024-02-26T11:21:50;3.07;;;2.10;;
11791;SDS011;5953;52.372;9.918;2024-02-26T11:24:19;4.93;;;2.67;;
11791;SDS011;5953;52.372;9.918;2024-02-26T11:26:48;2.67;;;2.30;;
11791;SDS011;5953;52.372;9.918;2024-02-26T11:29:26;3.20;;;2.07;;
11791;SDS011;5953;52.372;9.918;2024-02-26T11:31:57;3.37;;;2.00;;
11791;SDS011;5953;52.372;9.918;2024-02-26T11:34:26;2.63;;;1.93;;
11791;SDS011;5953;52.372;9.918;2024-02-26T11:36:55;3.30;;;2.10;;
11791;SDS011;5953;52.372;9.918;2024-02-26T11:39:24;2.50;;;2.13;;
11791;SDS011;5953;52.372;9.918;2024-02-26T11:41:53;3.00;;;1.93;;
11791;SDS011;5953;52.372;9.918;2024-02-26T11:44:28;4.03;;;2.40;;
11791;SDS011;5953;52.372;9.918;2024-02-26T11:46:56;4.00;;;2.50;;
11791;SDS011;5953;52.372;9.918;2024-02-26T11:49:31;2.87;;;2.10;;
11791;SDS011;5953;52.372;9.918;2024-02-26T11:52:01;2.83;;;2.07;;
11791;SDS011;5953;52.372;9.918;2024-02-26T11:54:43;2.10;;;1.77;;
11791;SDS011;5953;52.372;9.918;2024-02-26T11:57:22;2.30;;;1.83;;
11791;SDS011;5953;52.372;9.918;2024-02-26T11:59:51;3.30;;;2.07;;
11791;SDS011;5953;52.372;9.918;2024-02-26T12:02:41;3.30;;;2.10;;
11791;SDS011;5953;52.372;9.918;2024-02-26T12:05:12;1.93;;;1.80;;
11791;SDS011;5953;52.372;9.918;2024-02-26T12:07:44;2.60;;;1.87;;
11791;SDS011;5953;52.372;9.918;2024-02-26T12:10:16;3.03;;;1.80;;
11791;SDS011;5953;52.372;9.918;2024-02-26T12:12:48;3.63;;;2.07;;
11791;SDS011;5953;52.372;9.918;2024-02-26T12:15:17;1.90;;;1.80;;
11791;SDS011;5953;52.372;9.918;2024-02-26T12:17:48;3.43;;;2.20;;
11791;SDS011;5953;52.372;9.918;2024-02-26T12:20:16;2.73;;;1.80;;
11791;SDS011;5953;52.372;9.918;2024-02-26T12:22:46;2.07;;;1.80;;
11791;SDS011;5953;52.372;9.918;2024-02-26T12:25:16;2.00;;;1.87;;
11791;SDS011;5953;52.372;9.918;2024-02-26T12:27:43;9.93;;;6.80;;
11791;SDS011;5953;52.372;9.918;2024-02-26T12:30:12;6.07;;;5.47;;
11791;SDS011;5953;52.372;9.918;2024-02-26T12:32:40;4.00;;;3.20;;
11791;SDS011;5953;52.372;9.918;2024-02-26T12:35:08;2.97;;;2.50;;
11791;SDS011;5953;52.372;9.918;2024-02-26T12:37:36;3.70;;;2.57;;
11791;SDS011;5953;52.372;9.918;2024-02-26T12:40:08;2.80;;;2.50;;
11791;SDS011;5953;52.372;9.918;2024-02-26T12:42:39;3.63;;;3.23;;
11791;SDS011;5953;52.372;9.918;2024-02-26T12:45:07;3.47;;;3.17;;
11791;SDS011;5953;52.372;9.918;2024-02-26T12:47:38;3.70;;;3.40;;
11791;SDS011;5953;52.372;9.918;2024-02-26T12:50:07;3.57;;;3.27;;
11791;SDS011;5953;52.372;9.918;2024-02-26T12:52:38;5.90;;;3.60;;
11791;SDS011;5953;52.372;9.918;2024-02-26T12:55:07;3.77;;;3.30;;
11791;SDS011;5953;52.372;9.918;2024-02-26T12:57:36;4.03;;;3.63;;
11791;SDS011;5953;52.372;9.918;2024-02-26T13:00:10;5.67;;;3.63;;
11791;SDS011;5953;52.372;9.918;2024-02-26T13:02:41;4.10;;;3.70;;
11791;SDS011;5953;52.372;9.918;2024-02-26T13:05:11;5.03;;;3.83;;
11791;SDS011;5953;52.372;9.918;2024-02-26T13:07:41;3.57;;;3.27;;
11791;SDS011;5953;52.372;9.918;2024-02-26T13:10:09;3.60;;;2.73;;
11791;SDS011;5953;52.372;9.918;2024-02-26T13:12:43;4.20;;;3.13;;
11791;SDS011;5953;52.372;9.918;2024-02-26T13:15:14;5.37;;;2.90;;
11791;SDS011;5953;52.372;9.918;2024-02-26T13:17:43;3.63;;;3.23;;
11791;SDS011;5953;52.372;9.918;2024-02-26T13:20:11;3.90;;;3.00;;
11791;SDS011;5953;52.372;9.918;2024-02-26T13:22:40;3.50;;;2.83;;
11791;SDS011;5953;52.372;9.918;2024-02-26T13:25:08;4.50;;;3.20;;
11791;SDS011;5953;52.372;9.918;2024-02-26T13:27:36;4.00;;;2.80;;
11791;SDS011;5953;52.372;9.918;2024-02-26T13:30:06;3.90;;;3.50;;
11791;SDS011;5953;52.372;9.918;2024-02-26T13:32:37;3.20;;;2.90;;
11791;SDS011;5953;52.372;9.918;2024-02-26T13:35:07;3.43;;;2.77;;
11791;SDS011;5953;52.372;9.918;2024-02-26T13:37:36;3.33;;;2.93;;
11791;SDS011;5953;52.372;9.918;2024-02-26T13:40:04;3.30;;;2.57;;
11791;SDS011;5953;52.372;9.918;2024-02-26T13:42:33;4.23;;;2.83;;
11791;SDS011;5953;52.372;9.918;2024-02-26T13:45:01;3.80;;;2.60;;
11791;SDS011;5953;52.372;9.918;2024-02-26T13:47:30;4.77;;;2.80;;
11791;SDS011;5953;52.372;9.918;2024-02-26T13:49:59;2.53;;;2.33;;
11791;SDS011;5953;52.372;9.918;2024-02-26T13:52:28;3.17;;;2.80;;
11791;SDS011;5953;52.372;9.918;2024-02-26T13:54:58;3.13;;;2.83;;
11791;SDS011;5953;52.372;9.918;2024-02-26T13:57:26;3.10;;;2.80;;
11791;SDS011;5953;52.372;9.918;2024-02-26T13:59:54;3.27;;;2.60;;
11791;SDS011;5953;52.372;9.918;2024-02-26T14:02:23;4.37;;;3.00;;
11791;SDS011;5953;52.372;9.918;2024-02-26T14:04:52;2.63;;;2.43;;
11791;SDS011;5953;52.372;9.918;2024-02-26T14:07:20;3.17;;;2.80;;
11791;SDS011;5953;52.372;9.918;2024-02-26T14:09:47;2.97;;;2.50;;
11791;SDS011;5953;52.372;9.918;2024-02-26T14:12:16;2.83;;;2.37;;
11791;SDS011;5953;52.372;9.918;2024-02-26T14:14:48;3.00;;;2.70;;
11791;SDS011;5953;52.372;9.918;2024-02-26T14:17:16;5.57;;;3.10;;
11791;SDS011;5953;52.372;9.918;2024-02-26T14:19:43;3.07;;;2.50;;
11791;SDS011;5953;52.372;9.918;2024-02-26T14:22:15;3.43;;;2.83;;
11791;SDS011;5953;52.372;9.918;2024-02-26T14:24:43;3.27;;;2.50;;
11791;SDS011;5953;52.372;9.918;2024-02-26T14:27:12;2.77;;;2.57;;
11791;SDS011;5953;52.372;9.918;2024-02-26T14:29:56;4.20;;;2.60;;
11791;SDS011;5953;52.372;9.918;2024-02-26T14:32:24;4.47;;;3.13;;
11791;SDS011;5953;52.372;9.918;2024-02-26T14:34:52;3.67;;;2.97;;
11791;SDS011;5953;52.372;9.918;2024-02-26T14:37:21;3.90;;;2.83;;
11791;SDS011;5953;52.372;9.918;2024-02-26T14:39:48;3.50;;;3.17;;
11791;SDS011;5953;52.372;9.918;2024-02-26T14:42:18;4.03;;;3.50;;
11791;SDS011;5953;52.372;9.918;2024-02-26T14:44:46;6.27;;;3.40;;
11791;SDS011;5953;52.372;9.918;2024-02-26T14:47:14;3.50;;;2.70;;
11791;SDS011;5953;52.372;9.918;2024-02-26T14:49:42;3.60;;;3.10;;
11791;SDS011;5953;52.372;9.918;2024-02-26T14:52:12;3.20;;;2.77;;
11791;SDS011;5953;52.372;9.918;2024-02-26T14:54:41;3.53;;;3.00;;
11791;SDS011;5953;52.372;9.918;2024-02-26T14:57:09;4.43;;;3.47;;
11791;SDS011;5953;52.372;9.918;2024-02-26T14:59:37;5.67;;;3.40;;
11791;SDS011;5953;52.372;9.918;2024-02-26T15:02:05;3.43;;;3.13;;
11791;SDS011;5953;52.372;9.918;2024-02-26T15:04:35;3.10;;;2.80;;
11791;SDS011;5953;52.372;9.918;2024-02-26T15:07:04;3.00;;;2.70;;
11791;SDS011;5953;52.372;9.918;2024-02-26T15:09:32;3.47;;;3.03;;
11791;SDS011;5953;52.372;9.918;2024-02-26T15:12:02;3.43;;;2.87;;